createdAt,value
2018-07-22T00:00:47.848Z,19.67
2018-07-22T00:01:47.831Z,19.75
2018-07-22T00:02:47.851Z,19.82
2018-07-22T00:03:47.803Z,19.82
2018-07-22T00:04:47.789Z,19.90
2018-07-22T00:05:47.768Z,19.92
2018-07-22T00:06:47.754Z,19.96
2018-07-22T00:07:47.736Z,19.96
2018-07-22T00:08:47.726Z,20.00
2018-07-22T00:09:47.738Z,20.04
2018-07-22T00:10:47.689Z,20.04
2018-07-22T00:11:47.687Z,19.94
2018-07-22T00:12:47.659Z,19.99
2018-07-22T00:13:47.643Z,19.99
2018-07-22T00:14:47.650Z,20.05
2018-07-22T00:15:47.614Z,20.04
2018-07-22T00:16:47.672Z,19.97
2018-07-22T00:17:47.582Z,19.99
2018-07-22T00:18:47.630Z,19.93
2018-07-22T00:19:47.552Z,19.90
2018-07-22T00:20:47.567Z,19.87
2018-07-22T00:21:47.540Z,19.78
2018-07-22T00:22:47.505Z,19.87
2018-07-22T00:23:47.488Z,19.84
2018-07-22T00:24:47.473Z,19.84
2018-07-22T00:25:47.463Z,19.82
2018-07-22T00:26:47.462Z,19.81
2018-07-22T00:27:47.442Z,19.79
2018-07-22T00:28:47.415Z,19.90
2018-07-22T00:29:47.393Z,19.78
2018-07-22T00:30:47.420Z,19.86
2018-07-22T00:31:47.421Z,19.81
2018-07-22T00:32:47.348Z,19.82
2018-07-22T00:33:47.367Z,19.79
2018-07-22T00:34:47.334Z,19.79
2018-07-22T00:35:47.324Z,19.77
2018-07-22T00:36:47.285Z,19.74
2018-07-22T00:37:47.270Z,19.63
2018-07-22T00:38:47.256Z,19.72
2018-07-22T00:39:47.260Z,19.70
2018-07-22T00:40:47.219Z,19.70
2018-07-22T00:41:47.204Z,19.60
2018-07-22T00:42:48.708Z,19.68
2018-07-22T00:43:47.204Z,19.64
2018-07-22T00:44:47.182Z,19.54
2018-07-22T00:45:47.139Z,19.56
2018-07-22T00:46:47.128Z,19.53
2018-07-22T00:47:47.109Z,19.54
2018-07-22T00:48:47.092Z,19.47
2018-07-22T00:49:47.082Z,19.50
2018-07-22T00:50:47.060Z,19.54
2018-07-22T00:51:47.064Z,19.47
2018-07-22T00:52:47.037Z,19.52
2018-07-22T00:53:47.050Z,19.50
2018-07-22T00:54:46.994Z,19.45
2018-07-22T00:55:47.016Z,19.53
2018-07-22T00:56:46.964Z,19.41
2018-07-22T00:57:46.955Z,19.50
2018-07-22T00:58:46.931Z,19.50
2018-07-22T00:59:46.952Z,19.53
2018-07-22T01:00:46.905Z,19.42
2018-07-22T01:03:28.642Z,19.42
2018-07-22T01:04:19.963Z,19.39
2018-07-22T01:05:19.972Z,19.49
2018-07-22T01:06:19.995Z,19.41
2018-07-22T01:07:19.925Z,19.41
2018-07-22T01:08:19.914Z,19.38
2018-07-22T01:09:19.891Z,19.35
2018-07-22T01:10:19.895Z,19.42
2018-07-22T01:11:19.883Z,19.39
2018-07-22T01:12:19.877Z,19.38
2018-07-22T01:13:19.822Z,19.26
2018-07-22T01:14:19.800Z,19.34
2018-07-22T01:15:19.792Z,19.35
2018-07-22T01:16:19.800Z,19.23
2018-07-22T01:17:19.790Z,19.24
2018-07-22T01:18:19.742Z,19.22
2018-07-22T01:19:19.724Z,19.15
2018-07-22T01:20:19.737Z,19.16
2018-07-22T01:21:19.727Z,19.16
2018-07-22T01:22:19.689Z,19.08
2018-07-22T01:23:19.684Z,19.00
2018-07-22T01:24:19.653Z,19.13
2018-07-22T01:25:19.639Z,19.01
2018-07-22T01:26:19.620Z,19.07
2018-07-22T01:27:19.629Z,18.91
2018-07-22T01:28:19.606Z,18.94
2018-07-22T01:29:19.563Z,18.97
2018-07-22T01:30:19.549Z,18.94
2018-07-22T01:31:19.533Z,18.94
2018-07-22T01:32:19.533Z,18.86
2018-07-22T01:33:19.508Z,18.89
2018-07-22T01:34:19.509Z,18.82
2018-07-22T01:35:19.466Z,18.91
2018-07-22T01:36:19.486Z,18.83
2018-07-22T01:37:19.451Z,18.75
2018-07-22T01:38:19.423Z,18.85
2018-07-22T01:39:19.404Z,18.64
2018-07-22T01:40:19.414Z,18.61
2018-07-22T01:41:19.373Z,18.58
2018-07-22T01:42:19.392Z,18.60
2018-07-22T01:43:19.365Z,18.61
2018-07-22T01:44:19.346Z,18.56
2018-07-22T01:45:19.304Z,18.51
2018-07-22T01:46:19.292Z,18.58
2018-07-22T01:47:19.289Z,18.51
2018-07-22T01:48:19.291Z,18.54
2018-07-22T01:49:19.246Z,18.57
2018-07-22T01:50:19.259Z,18.48
2018-07-22T01:51:19.216Z,18.48
2018-07-22T01:52:19.209Z,18.48
2018-07-22T01:53:19.200Z,18.49
2018-07-22T01:54:19.162Z,18.57
2018-07-22T01:55:19.149Z,18.52
2018-07-22T01:56:19.135Z,18.48
2018-07-22T01:57:19.139Z,18.54
2018-07-22T01:58:19.134Z,18.49
2018-07-22T02:02:33.978Z,18.54
2018-07-22T02:03:33.918Z,18.54
2018-07-22T02:04:33.903Z,18.49
2018-07-22T02:05:33.908Z,18.54
2018-07-22T02:06:33.860Z,18.49
2018-07-22T02:07:33.826Z,18.49
2018-07-22T02:08:33.811Z,18.41
2018-07-22T02:09:33.802Z,18.41
2018-07-22T02:10:33.777Z,18.41
2018-07-22T02:11:33.760Z,18.39
2018-07-22T02:12:33.763Z,18.43
2018-07-22T02:15:06.875Z,18.42
2018-07-22T02:16:06.799Z,18.33
2018-07-22T02:17:06.789Z,18.39
2018-07-22T02:18:06.792Z,18.39
2018-07-22T02:19:06.751Z,18.39
2018-07-22T02:20:06.746Z,18.38
2018-07-22T02:21:06.722Z,18.39
2018-07-22T02:22:06.699Z,18.30
2018-07-22T02:23:06.689Z,18.42
2018-07-22T02:24:06.670Z,18.38
2018-07-22T02:25:06.654Z,18.38
2018-07-22T02:26:15.304Z,18.38
2018-07-22T02:28:10.121Z,18.38
2018-07-22T02:29:00.097Z,18.49
2018-07-22T02:29:59.974Z,18.42
2018-07-22T02:31:00.029Z,18.38
2018-07-22T02:31:59.934Z,18.42
2018-07-22T02:32:59.919Z,18.42
2018-07-22T02:33:59.923Z,18.33
2018-07-22T02:34:59.888Z,18.41
2018-07-22T02:35:59.905Z,18.26
2018-07-22T02:36:59.847Z,18.39
2018-07-22T02:37:59.835Z,18.33
2018-07-22T02:38:59.845Z,18.28
2018-07-22T02:39:59.801Z,18.39
2018-07-22T02:40:59.807Z,18.28
2018-07-22T02:41:59.766Z,18.20
2018-07-22T02:42:59.798Z,18.23
2018-07-22T02:43:59.750Z,18.38
2018-07-22T02:44:59.721Z,18.23
2018-07-22T02:45:59.710Z,18.39
2018-07-22T02:46:59.698Z,18.36
2018-07-22T02:47:59.670Z,18.30
2018-07-22T02:48:59.655Z,18.24
2018-07-22T02:49:59.637Z,18.27
2018-07-22T02:50:59.665Z,18.33
2018-07-22T02:51:59.604Z,18.28
2018-07-22T02:52:59.604Z,18.27
2018-07-22T02:53:59.568Z,18.18
2018-07-22T02:54:59.559Z,18.23
2018-07-22T02:55:59.534Z,18.11
2018-07-22T02:56:59.556Z,18.08
2018-07-22T02:57:59.504Z,18.15
2018-07-22T02:58:59.486Z,18.15
2018-07-22T02:59:59.491Z,18.02
2018-07-22T03:00:59.457Z,18.05
2018-07-22T03:01:59.447Z,18.06
2018-07-22T03:02:59.450Z,18.03
2018-07-22T03:03:59.401Z,18.05
2018-07-22T03:04:59.386Z,18.02
2018-07-22T03:05:59.372Z,18.03
2018-07-22T03:06:59.359Z,18.06
2018-07-22T03:07:59.339Z,18.02
2018-07-22T03:08:59.352Z,17.94
2018-07-22T03:09:59.329Z,17.97
2018-07-22T03:10:59.287Z,17.93
2018-07-22T03:11:59.280Z,17.93
2018-07-22T03:12:59.251Z,17.96
2018-07-22T03:13:59.234Z,17.93
2018-07-22T03:14:59.221Z,17.90
2018-07-22T03:15:59.201Z,17.93
2018-07-22T03:16:59.190Z,17.91
2018-07-22T03:17:59.175Z,17.78
2018-07-22T03:18:59.164Z,17.75
2018-07-22T03:19:59.164Z,17.75
2018-07-22T03:20:59.122Z,17.79
2018-07-22T03:21:59.100Z,17.68
2018-07-22T03:22:59.096Z,17.76
2018-07-22T03:23:59.092Z,17.76
2018-07-22T03:24:59.056Z,17.76
2018-07-22T03:25:59.040Z,17.53
2018-07-22T03:26:59.053Z,17.73
2018-07-22T03:27:59.042Z,17.66
2018-07-22T03:28:58.989Z,17.63
2018-07-22T03:29:58.970Z,17.52
2018-07-22T03:30:58.953Z,17.63
2018-07-22T03:31:58.947Z,17.57
2018-07-22T03:32:58.923Z,17.52
2018-07-22T03:33:58.926Z,17.62
2018-07-22T03:34:58.894Z,17.50
2018-07-22T03:35:58.913Z,17.59
2018-07-22T03:36:58.855Z,17.53
2018-07-22T03:37:58.840Z,17.52
2018-07-22T03:38:58.819Z,17.56
2018-07-22T03:39:58.797Z,17.49
2018-07-22T03:40:58.817Z,17.47
2018-07-22T03:41:58.787Z,17.54
2018-07-22T03:42:58.753Z,17.49
2018-07-22T03:43:58.735Z,17.46
2018-07-22T03:44:58.745Z,17.52
2018-07-22T03:45:58.702Z,17.43
2018-07-22T03:46:58.680Z,17.47
2018-07-22T03:47:58.687Z,17.38
2018-07-22T03:48:58.671Z,17.47
2018-07-22T03:49:58.656Z,17.41
2018-07-22T03:50:58.619Z,17.38
2018-07-22T03:51:58.614Z,17.38
2018-07-22T03:52:58.601Z,17.35
2018-07-22T03:53:58.605Z,17.38
2018-07-22T03:54:58.548Z,17.35
2018-07-22T03:55:58.536Z,17.43
2018-07-22T03:56:58.552Z,17.45
2018-07-22T03:57:58.506Z,17.41
2018-07-22T03:58:58.503Z,17.43
2018-07-22T03:59:58.469Z,17.41
2018-07-22T04:00:58.466Z,17.41
2018-07-22T04:01:58.454Z,17.35
2018-07-22T04:02:58.418Z,17.43
2018-07-22T04:03:58.403Z,17.39
2018-07-22T04:04:58.394Z,17.37
2018-07-22T04:05:58.371Z,17.32
2018-07-22T04:06:58.351Z,17.32
2018-07-22T04:07:58.365Z,17.31
2018-07-22T04:08:58.329Z,17.37
2018-07-22T04:09:58.293Z,17.30
2018-07-22T04:10:58.304Z,17.28
2018-07-22T04:11:58.270Z,17.32
2018-07-22T04:12:58.242Z,17.39
2018-07-22T04:13:58.240Z,17.27
2018-07-22T04:14:58.225Z,17.30
2018-07-22T04:15:58.195Z,17.27
2018-07-22T04:18:28.966Z,17.30
2018-07-22T04:19:21.195Z,17.37
2018-07-22T04:21:15.569Z,17.43
2018-07-22T04:22:15.590Z,17.32
2018-07-22T04:23:15.550Z,17.37
2018-07-22T04:24:15.528Z,17.34
2018-07-22T04:25:15.520Z,17.34
2018-07-22T04:26:15.476Z,17.35
2018-07-22T04:27:15.507Z,17.38
2018-07-22T04:28:15.435Z,17.38
2018-07-22T04:29:15.463Z,17.35
2018-07-22T04:30:15.398Z,17.30
2018-07-22T04:31:15.386Z,17.27
2018-07-22T04:32:15.375Z,17.37
2018-07-22T04:33:15.352Z,17.32
2018-07-22T04:34:15.359Z,17.28
2018-07-22T04:35:15.329Z,17.34
2018-07-22T04:36:15.304Z,17.30
2018-07-22T04:37:15.280Z,17.30
2018-07-22T04:38:15.288Z,17.32
2018-07-22T04:39:15.249Z,17.37
2018-07-22T04:40:15.256Z,17.39
2018-07-22T04:41:15.223Z,17.35
2018-07-22T04:42:15.206Z,17.45
2018-07-22T04:43:15.229Z,17.39
2018-07-22T04:44:15.162Z,17.45
2018-07-22T04:45:15.146Z,17.41
2018-07-22T04:46:15.163Z,17.45
2018-07-22T04:47:15.116Z,17.49
2018-07-22T04:48:15.097Z,17.52
2018-07-22T04:49:15.079Z,17.50
2018-07-22T04:50:15.097Z,17.50
2018-07-22T04:52:45.816Z,17.50
2018-07-22T04:53:38.187Z,17.46
2018-07-22T04:55:32.554Z,17.49
2018-07-22T04:56:32.438Z,17.46
2018-07-22T04:57:32.414Z,17.49
2018-07-22T04:59:55.514Z,17.53
2018-07-22T05:01:04.028Z,17.49
2018-07-22T05:02:49.776Z,17.53
2018-07-22T05:05:22.851Z,17.54
2018-07-22T05:06:12.752Z,17.63
2018-07-22T05:07:12.907Z,17.56
2018-07-22T05:08:12.756Z,17.57
2018-07-22T05:09:12.815Z,17.68
2018-07-22T05:10:12.744Z,17.57
2018-07-22T05:11:12.663Z,17.59
2018-07-22T05:12:12.641Z,17.50
2018-07-22T05:13:12.629Z,17.69
2018-07-22T05:14:12.595Z,17.59
2018-07-22T05:16:36.149Z,17.72
2018-07-22T05:19:09.728Z,17.62
2018-07-22T05:19:59.971Z,17.71
2018-07-22T05:22:30.695Z,17.72
2018-07-22T05:23:20.586Z,17.69
2018-07-22T05:24:20.568Z,17.63
2018-07-22T05:25:20.548Z,17.73
2018-07-22T05:26:20.535Z,17.59
2018-07-22T05:27:20.515Z,17.65
2018-07-22T05:28:20.509Z,17.68
2018-07-22T05:29:20.494Z,17.72
2018-07-22T05:30:20.468Z,17.81
2018-07-22T05:31:20.454Z,17.66
2018-07-22T05:32:20.434Z,17.73
2018-07-22T05:33:20.433Z,17.76
2018-07-22T05:34:20.402Z,17.72
2018-07-22T05:35:20.406Z,17.78
2018-07-22T05:36:20.381Z,17.76
2018-07-22T05:38:43.473Z,17.91
2018-07-22T05:39:43.431Z,17.88
2018-07-22T05:40:43.351Z,17.91
2018-07-22T05:41:43.354Z,17.91
2018-07-22T05:42:43.344Z,17.96
2018-07-22T05:43:43.363Z,18.05
2018-07-22T05:44:43.293Z,18.06
2018-07-22T05:45:43.277Z,17.96
2018-07-22T05:46:43.369Z,17.93
2018-07-22T05:47:43.235Z,18.05
2018-07-22T05:48:43.215Z,18.08
2018-07-22T05:49:43.204Z,18.05
2018-07-22T05:50:43.205Z,18.11
2018-07-22T05:51:43.171Z,18.09
2018-07-22T05:52:43.159Z,18.17
2018-07-22T05:53:43.139Z,18.17
2018-07-22T05:54:43.142Z,18.21
2018-07-22T05:55:43.105Z,18.23
2018-07-22T05:56:43.100Z,18.28
2018-07-22T05:57:43.074Z,18.39
2018-07-22T05:58:43.070Z,18.36
2018-07-22T05:59:43.045Z,18.41
2018-07-22T06:02:05.075Z,18.48
2018-07-22T06:03:05.072Z,18.46
2018-07-22T06:04:05.032Z,18.43
2018-07-22T06:05:05.007Z,18.49
2018-07-22T06:06:05.005Z,18.60
2018-07-22T06:07:04.980Z,18.64
2018-07-22T06:08:05.011Z,18.75
2018-07-22T06:09:05.134Z,18.68
2018-07-22T06:10:04.952Z,18.79
2018-07-22T06:11:04.919Z,18.88
2018-07-22T06:12:04.972Z,18.91
2018-07-22T06:13:04.893Z,18.96
2018-07-22T06:14:04.878Z,19.07
2018-07-22T06:15:04.866Z,19.13
2018-07-22T06:16:04.852Z,19.15
2018-07-22T06:17:04.835Z,19.20
2018-07-22T06:18:04.824Z,19.26
2018-07-22T06:19:04.816Z,19.20
2018-07-22T06:20:04.807Z,19.22
2018-07-22T06:21:04.788Z,19.13
2018-07-22T06:22:04.776Z,19.31
2018-07-22T06:23:04.763Z,19.20
2018-07-22T06:24:04.750Z,19.31
2018-07-22T06:25:04.737Z,19.35
2018-07-22T06:26:04.725Z,19.31
2018-07-22T06:27:04.716Z,19.38
2018-07-22T06:28:04.708Z,19.39
2018-07-22T06:29:04.690Z,19.38
2018-07-22T06:30:04.681Z,19.56
2018-07-22T06:31:04.669Z,19.56
2018-07-22T06:32:04.663Z,19.57
2018-07-22T06:33:04.644Z,19.74
2018-07-22T06:34:04.635Z,19.75
2018-07-22T06:35:04.623Z,19.84
2018-07-22T06:36:04.613Z,19.86
2018-07-22T06:37:04.596Z,19.87
2018-07-22T06:38:04.590Z,19.87
2018-07-22T06:39:04.583Z,19.90
2018-07-22T06:40:04.568Z,19.86
2018-07-22T06:41:04.586Z,19.93
2018-07-22T06:42:04.550Z,20.02
2018-07-22T06:43:04.534Z,20.04
2018-07-22T06:44:04.531Z,20.08
2018-07-22T06:45:04.528Z,20.08
2018-07-22T06:46:04.515Z,20.12
2018-07-22T06:47:04.523Z,20.04
2018-07-22T06:48:04.488Z,20.05
2018-07-22T06:49:04.510Z,19.96
2018-07-22T06:51:26.615Z,20.07
2018-07-22T06:52:26.512Z,20.14
2018-07-22T06:53:26.490Z,20.09
2018-07-22T06:54:26.519Z,20.19
2018-07-22T06:55:26.463Z,20.15
2018-07-22T06:56:26.441Z,20.17
2018-07-22T06:57:26.516Z,20.26
2018-07-22T06:58:26.481Z,20.32
2018-07-22T07:01:00.674Z,20.29
2018-07-22T07:01:50.454Z,20.34
2018-07-22T07:02:50.459Z,20.27
2018-07-22T07:03:50.420Z,20.46
2018-07-22T07:04:50.417Z,20.44
2018-07-22T07:05:50.402Z,20.53
2018-07-22T07:06:50.397Z,20.56
2018-07-22T07:07:50.384Z,20.49
2018-07-22T07:08:50.377Z,20.67
2018-07-22T07:09:50.367Z,20.68
2018-07-22T07:10:50.359Z,20.74
2018-07-22T07:11:50.345Z,20.73
2018-07-22T07:12:50.342Z,20.77
2018-07-22T07:13:50.329Z,20.85
2018-07-22T07:14:50.321Z,20.85
2018-07-22T07:15:50.316Z,20.89
2018-07-22T07:16:50.306Z,20.86
2018-07-22T07:17:50.299Z,20.97
2018-07-22T07:18:50.291Z,21.03
2018-07-22T07:19:50.283Z,21.08
2018-07-22T07:20:50.292Z,21.18
2018-07-22T07:21:50.259Z,21.16
2018-07-22T07:22:50.257Z,21.19
2018-07-22T07:23:57.904Z,21.22
2018-07-22T07:25:44.663Z,21.29
2018-07-22T07:26:44.692Z,21.28
2018-07-22T07:27:44.620Z,21.43
2018-07-22T07:28:44.603Z,21.50
2018-07-22T07:29:44.598Z,21.50
2018-07-22T07:30:44.584Z,21.45
2018-07-22T07:31:44.576Z,21.63
2018-07-22T07:32:44.565Z,21.60
2018-07-22T07:33:44.559Z,21.69
2018-07-22T07:34:44.562Z,21.78
2018-07-22T07:35:44.548Z,21.85
2018-07-22T07:36:44.529Z,21.88
2018-07-22T07:37:44.521Z,21.80
2018-07-22T07:38:44.508Z,21.93
2018-07-22T07:39:44.512Z,22.07
2018-07-22T07:40:44.499Z,22.04
2018-07-22T07:41:44.484Z,22.04
2018-07-22T07:42:44.492Z,21.98
2018-07-22T07:43:44.457Z,21.97
2018-07-22T07:44:44.469Z,21.93
2018-07-22T07:45:44.433Z,22.07
2018-07-22T07:46:44.442Z,22.19
2018-07-22T07:47:44.457Z,22.28
2018-07-22T07:50:17.602Z,22.56
2018-07-22T07:51:07.470Z,22.62
2018-07-22T07:52:07.454Z,22.67
2018-07-22T07:53:07.464Z,22.83
2018-07-22T07:54:07.434Z,22.96
2018-07-22T07:55:07.448Z,22.98
2018-07-22T07:56:07.373Z,22.93
2018-07-22T07:57:07.358Z,23.01
2018-07-22T07:58:07.350Z,22.93
2018-07-22T07:59:07.343Z,22.86
2018-07-22T08:00:07.333Z,22.91
2018-07-22T08:01:07.328Z,22.96
2018-07-22T08:03:30.462Z,23.22
2018-07-22T08:06:04.124Z,23.14
2018-07-22T08:06:52.700Z,23.10
2018-07-22T08:09:25.038Z,22.95
2018-07-22T08:11:52.994Z,23.22
2018-07-22T08:12:42.819Z,23.39
2018-07-22T08:13:42.858Z,23.51
2018-07-22T08:14:42.867Z,23.51
2018-07-22T08:15:42.781Z,23.66
2018-07-22T08:16:42.917Z,23.67
2018-07-22T08:17:42.754Z,23.67
2018-07-22T08:18:42.744Z,23.84
2018-07-22T08:19:42.738Z,23.91
2018-07-22T08:20:42.723Z,23.84
2018-07-22T08:21:42.843Z,23.79
2018-07-22T08:22:42.701Z,23.76
2018-07-22T08:25:05.741Z,23.91
2018-07-22T08:26:05.771Z,23.88
2018-07-22T08:27:05.703Z,23.91
2018-07-22T08:28:05.686Z,23.85
2018-07-22T08:29:05.676Z,23.86
2018-07-22T08:30:05.662Z,23.84
2018-07-22T08:31:05.650Z,23.78
2018-07-22T08:32:05.645Z,23.78
2018-07-22T08:33:05.635Z,23.79
2018-07-22T08:34:05.622Z,23.67
2018-07-22T08:35:05.608Z,23.66
2018-07-22T08:36:05.601Z,23.71
2018-07-22T08:37:05.590Z,23.71
2018-07-22T08:38:05.573Z,23.78
2018-07-22T08:39:05.565Z,23.86
2018-07-22T08:40:05.556Z,23.94
2018-07-22T08:41:13.206Z,23.86
2018-07-22T08:42:58.957Z,23.85
2018-07-22T08:43:58.920Z,23.91
2018-07-22T08:45:53.313Z,23.96
2018-07-22T08:46:53.283Z,24.06
2018-07-22T08:47:53.274Z,24.18
2018-07-22T08:48:53.259Z,24.19
2018-07-22T08:49:53.252Z,24.16
2018-07-22T08:50:53.239Z,24.22
2018-07-22T08:51:53.229Z,24.19
2018-07-22T08:52:53.218Z,24.19
2018-07-22T08:53:53.212Z,24.21
2018-07-22T08:54:53.197Z,24.21
2018-07-22T08:55:53.189Z,24.13
2018-07-22T08:56:53.172Z,24.19
2018-07-22T08:57:53.162Z,24.25
2018-07-22T09:00:23.903Z,24.33
2018-07-22T09:01:16.190Z,24.25
2018-07-22T09:03:10.584Z,24.36
2018-07-22T09:04:10.578Z,24.29
2018-07-22T09:05:10.542Z,24.52
2018-07-22T09:06:11.176Z,24.59
2018-07-22T09:07:10.546Z,24.55
2018-07-22T09:08:10.526Z,24.58
2018-07-22T09:09:10.501Z,24.58
2018-07-22T09:10:10.517Z,24.65
2018-07-22T09:11:10.514Z,24.58
2018-07-22T09:12:10.465Z,24.48
2018-07-22T09:13:10.454Z,24.70
2018-07-22T09:14:10.445Z,24.75
2018-07-22T09:15:10.432Z,24.81
2018-07-22T09:16:10.421Z,24.78
2018-07-22T09:17:10.409Z,24.89
2018-07-22T09:18:10.425Z,24.97
2018-07-22T09:19:10.411Z,24.99
2018-07-22T09:20:10.379Z,24.86
2018-07-22T09:21:10.369Z,24.91
2018-07-22T09:22:10.355Z,24.86
2018-07-22T09:23:10.344Z,24.85
2018-07-22T09:24:10.332Z,24.82
2018-07-22T09:25:10.320Z,24.94
2018-07-22T09:26:10.322Z,25.01
2018-07-22T09:27:10.314Z,25.06
2018-07-22T09:28:10.288Z,25.14
2018-07-22T09:29:10.313Z,25.12
2018-07-22T09:30:10.270Z,25.31
2018-07-22T09:31:10.289Z,25.48
2018-07-22T09:32:10.293Z,25.52
2018-07-22T09:34:33.284Z,25.19
2018-07-22T09:35:33.252Z,25.09
2018-07-22T09:36:33.305Z,25.19
2018-07-22T09:37:33.228Z,25.22
2018-07-22T09:38:33.221Z,25.19
2018-07-22T09:39:33.212Z,25.31
2018-07-22T09:40:33.198Z,25.38
2018-07-22T09:41:33.203Z,25.33
2018-07-22T09:42:33.172Z,25.40
2018-07-22T09:43:33.163Z,25.48
2018-07-22T09:44:33.160Z,25.51
2018-07-22T09:45:33.143Z,25.63
2018-07-22T09:46:33.139Z,25.73
2018-07-22T09:47:33.120Z,25.81
2018-07-22T09:48:33.108Z,25.78
2018-07-22T09:49:33.107Z,25.96
2018-07-22T09:50:33.090Z,25.93
2018-07-22T09:51:33.080Z,26.04
2018-07-22T09:52:33.102Z,26.05
2018-07-22T09:53:33.063Z,26.16
2018-07-22T09:54:33.049Z,26.24
2018-07-22T09:55:33.035Z,26.28
2018-07-22T09:56:33.034Z,26.16
2018-07-22T09:57:33.019Z,26.30
2018-07-22T09:58:33.030Z,26.27
2018-07-22T09:59:32.993Z,26.24
2018-07-22T10:00:32.984Z,26.24
2018-07-22T10:01:32.982Z,26.28
2018-07-22T10:02:32.963Z,26.38
2018-07-22T10:03:32.958Z,26.28
2018-07-22T10:04:32.959Z,26.16
2018-07-22T10:05:32.938Z,26.19
2018-07-22T10:06:32.924Z,26.24
2018-07-22T10:07:32.922Z,26.34
2018-07-22T10:08:32.906Z,26.53
2018-07-22T10:09:32.896Z,26.65
2018-07-22T10:10:32.887Z,26.83
2018-07-22T10:11:32.874Z,26.86
2018-07-22T10:12:32.862Z,26.85
2018-07-22T10:13:32.877Z,26.86
2018-07-22T10:14:32.941Z,26.90
2018-07-22T10:15:32.831Z,27.01
2018-07-22T10:16:32.822Z,26.82
2018-07-22T10:17:32.856Z,26.82
2018-07-22T10:18:32.801Z,26.93
2018-07-22T10:19:32.786Z,27.01
2018-07-22T10:20:32.792Z,27.17
2018-07-22T10:21:32.769Z,27.05
2018-07-22T10:22:32.790Z,27.08
2018-07-22T10:23:32.756Z,26.85
2018-07-22T10:24:32.741Z,26.64
2018-07-22T10:25:32.727Z,26.61
2018-07-22T10:26:32.726Z,26.79
2018-07-22T10:27:32.712Z,26.89
2018-07-22T10:28:32.704Z,27.12
2018-07-22T10:29:32.710Z,27.16
2018-07-22T10:30:32.686Z,27.19
2018-07-22T10:31:32.681Z,27.19
2018-07-22T10:32:32.669Z,27.23
2018-07-22T10:33:32.655Z,27.23
2018-07-22T10:34:32.682Z,27.27
2018-07-22T10:35:32.634Z,27.32
2018-07-22T10:36:32.651Z,27.35
2018-07-22T10:37:32.617Z,27.37
2018-07-22T10:38:32.623Z,27.49
2018-07-22T10:39:32.597Z,27.57
2018-07-22T10:40:32.591Z,27.57
2018-07-22T10:41:32.577Z,27.42
2018-07-22T10:42:32.573Z,27.38
2018-07-22T10:43:32.560Z,27.42
2018-07-22T10:44:32.553Z,27.44
2018-07-22T10:45:32.541Z,27.52
2018-07-22T10:46:32.533Z,27.57
2018-07-22T10:47:32.530Z,27.57
2018-07-22T10:48:32.512Z,27.64
2018-07-22T10:49:32.502Z,27.58
2018-07-22T10:50:32.505Z,27.57
2018-07-22T10:51:32.486Z,27.80
2018-07-22T10:52:32.473Z,27.87
2018-07-22T10:53:32.461Z,28.00
2018-07-22T10:54:32.458Z,28.06
2018-07-22T10:55:32.448Z,28.17
2018-07-22T10:56:32.440Z,28.27
2018-07-22T10:57:32.433Z,28.24
2018-07-22T10:58:32.430Z,28.37
2018-07-22T10:59:32.416Z,28.32
2018-07-22T11:00:32.403Z,28.46
2018-07-22T11:01:32.397Z,28.53
2018-07-22T11:02:32.412Z,28.37
2018-07-22T11:03:32.373Z,28.30
2018-07-22T11:04:32.373Z,28.22
2018-07-22T11:05:32.391Z,28.06
2018-07-22T11:06:32.351Z,28.01
2018-07-22T11:07:32.339Z,27.97
2018-07-22T11:08:32.330Z,27.98
2018-07-22T11:09:32.334Z,27.97
2018-07-22T11:10:32.332Z,28.03
2018-07-22T11:11:32.345Z,28.24
2018-07-22T11:12:32.297Z,28.24
2018-07-22T11:13:32.311Z,28.17
2018-07-22T11:14:32.350Z,28.15
2018-07-22T11:15:32.275Z,28.12
2018-07-22T11:16:32.260Z,28.09
2018-07-22T11:17:32.295Z,28.19
2018-07-22T11:18:32.248Z,28.19
2018-07-22T11:19:32.276Z,28.30
2018-07-22T11:20:32.224Z,28.42
2018-07-22T11:21:32.219Z,28.53
2018-07-22T11:22:32.207Z,28.28
2018-07-22T11:23:32.198Z,28.34
2018-07-22T11:24:32.192Z,28.34
2018-07-22T11:25:32.211Z,28.50
2018-07-22T11:26:32.172Z,28.49
2018-07-22T11:27:32.171Z,28.61
2018-07-22T11:28:32.170Z,28.61
2018-07-22T11:29:32.148Z,28.64
2018-07-22T11:30:32.139Z,28.69
2018-07-22T11:31:32.135Z,28.74
2018-07-22T11:32:32.123Z,28.89
2018-07-22T11:33:32.132Z,28.96
2018-07-22T11:34:32.112Z,28.93
2018-07-22T11:35:32.100Z,29.00
2018-07-22T11:36:32.096Z,29.13
2018-07-22T11:37:32.085Z,29.06
2018-07-22T11:38:32.099Z,28.89
2018-07-22T11:39:32.070Z,29.00
2018-07-22T11:40:32.091Z,29.15
2018-07-22T11:41:32.047Z,29.18
2018-07-22T11:42:32.042Z,29.24
2018-07-22T11:43:32.149Z,29.27
2018-07-22T11:44:32.028Z,29.25
2018-07-22T11:45:32.015Z,29.33
2018-07-22T11:46:32.010Z,29.39
2018-07-22T11:47:32.002Z,29.55
2018-07-22T11:48:31.988Z,29.68
2018-07-22T11:49:31.984Z,29.81
2018-07-22T11:50:31.982Z,29.91
2018-07-22T11:51:31.968Z,29.91
2018-07-22T11:52:32.004Z,29.92
2018-07-22T11:53:31.951Z,29.81
2018-07-22T11:54:31.939Z,29.46
2018-07-22T11:55:31.981Z,29.15
2018-07-22T11:56:31.955Z,28.91
2018-07-22T11:57:31.917Z,28.61
2018-07-22T11:58:31.965Z,28.42
2018-07-22T11:59:31.905Z,28.20
2018-07-22T12:00:31.893Z,28.27
2018-07-22T12:01:31.957Z,28.22
2018-07-22T12:02:31.927Z,28.31
2018-07-22T12:03:31.960Z,28.38
2018-07-22T12:04:31.863Z,28.40
2018-07-22T12:05:31.983Z,28.44
2018-07-22T12:06:31.853Z,28.43
2018-07-22T12:07:31.946Z,28.49
2018-07-22T12:08:31.922Z,28.32
2018-07-22T12:09:31.825Z,28.34
2018-07-22T12:10:31.822Z,28.19
2018-07-22T12:11:31.810Z,28.20
2018-07-22T12:12:31.828Z,28.09
2018-07-22T12:13:31.801Z,28.01
2018-07-22T12:14:31.785Z,27.97
2018-07-22T12:15:31.777Z,27.82
2018-07-22T12:16:31.766Z,27.60
2018-07-22T12:17:31.756Z,27.61
2018-07-22T12:18:31.752Z,27.57
2018-07-22T12:19:31.744Z,27.61
2018-07-22T12:20:31.730Z,27.70
2018-07-22T12:21:31.726Z,27.87
2018-07-22T12:22:31.778Z,27.97
2018-07-22T12:23:31.710Z,27.98
2018-07-22T12:24:31.768Z,28.20
2018-07-22T12:25:31.707Z,28.42
2018-07-22T12:26:31.682Z,28.57
2018-07-22T12:27:31.685Z,28.77
2018-07-22T12:28:31.666Z,28.90
2018-07-22T12:29:31.661Z,29.12
2018-07-22T12:30:31.659Z,29.12
2018-07-22T12:31:31.638Z,28.93
2018-07-22T12:32:31.635Z,28.87
2018-07-22T12:33:31.627Z,28.75
2018-07-22T12:34:31.650Z,28.64
2018-07-22T12:35:31.629Z,28.53
2018-07-22T12:36:31.604Z,28.38
2018-07-22T12:37:31.598Z,28.34
2018-07-22T12:38:31.582Z,28.20
2018-07-22T12:39:31.583Z,28.34
2018-07-22T12:40:31.575Z,28.32
2018-07-22T12:41:31.562Z,28.30
2018-07-22T12:42:31.552Z,28.19
2018-07-22T12:43:31.548Z,28.03
2018-07-22T12:44:31.538Z,27.79
2018-07-22T12:45:31.529Z,27.73
2018-07-22T12:46:31.592Z,27.80
2018-07-22T12:47:31.517Z,27.93
2018-07-22T12:48:31.505Z,27.95
2018-07-22T12:49:31.497Z,27.98
2018-07-22T12:50:31.498Z,28.03
2018-07-22T12:51:31.487Z,28.06
2018-07-22T12:52:31.472Z,28.13
2018-07-22T12:53:31.465Z,28.27
2018-07-22T12:54:31.452Z,28.38
2018-07-22T12:55:31.450Z,28.62
2018-07-22T12:56:31.441Z,28.87
2018-07-22T12:57:31.436Z,29.13
2018-07-22T12:58:31.426Z,29.28
2018-07-22T12:59:31.427Z,29.46
2018-07-22T13:00:31.411Z,29.65
2018-07-22T13:01:31.404Z,29.89
2018-07-22T13:02:31.391Z,29.71
2018-07-22T13:03:31.391Z,29.74
2018-07-22T13:04:31.382Z,29.66
2018-07-22T13:05:31.375Z,29.56
2018-07-22T13:06:31.371Z,29.28
2018-07-22T13:07:31.366Z,29.17
2018-07-22T13:08:31.358Z,29.07
2018-07-22T13:09:31.362Z,28.90
2018-07-22T13:10:31.346Z,28.87
2018-07-22T13:11:31.334Z,28.81
2018-07-22T13:12:31.333Z,28.90
2018-07-22T13:13:31.325Z,29.18
2018-07-22T13:14:31.317Z,29.28
2018-07-22T13:15:31.328Z,29.80
2018-07-22T13:16:31.303Z,30.36
2018-07-22T13:17:31.338Z,30.83
2018-07-22T13:18:31.378Z,31.07
2018-07-22T13:19:31.947Z,31.52
2018-07-22T13:20:31.281Z,31.79
2018-07-22T13:21:31.434Z,32.17
2018-07-22T13:22:31.266Z,32.17
2018-07-22T13:23:31.329Z,31.67
2018-07-22T13:24:31.259Z,31.52
2018-07-22T13:25:31.328Z,31.27
2018-07-22T13:26:31.295Z,31.04
2018-07-22T13:27:31.356Z,30.85
2018-07-22T13:28:31.336Z,30.93
2018-07-22T13:29:31.316Z,31.24
2018-07-22T13:30:31.220Z,31.44
2018-07-22T13:31:31.226Z,31.45
2018-07-22T13:32:31.220Z,31.61